createdAt,value
2019-05-01T00:00:16.003Z,69.93
2019-05-01T00:01:26.717Z,69.03
2019-05-01T00:02:51.046Z,75.93
2019-05-01T00:04:15.298Z,79.17
2019-05-01T00:05:30.689Z,69.90
2019-05-01T00:06:39.841Z,73.23
2019-05-01T00:07:45.275Z,73.93
2019-05-01T00:08:51.055Z,79.53
2019-05-01T00:09:56.444Z,78.17
2019-05-01T00:11:02.010Z,73.07
2019-05-01T00:12:07.496Z,73.50
2019-05-01T00:13:12.810Z,81.70
2019-05-01T00:14:18.693Z,79.73
2019-05-01T00:15:25.734Z,80.53
2019-05-01T00:16:31.050Z,78.87
2019-05-01T00:17:38.584Z,80.13
2019-05-01T00:18:44.173Z,77.47
2019-05-01T00:19:49.642Z,77.70
2019-05-01T00:20:55.633Z,79.73
2019-05-01T00:22:01.100Z,80.20
2019-05-01T00:23:06.532Z,78.17
2019-05-01T00:24:12.395Z,75.57
2019-05-01T00:25:17.748Z,79.53
2019-05-01T00:26:23.167Z,74.03
2019-05-01T00:27:31.029Z,81.27
2019-05-01T00:28:36.929Z,85.20
2019-05-01T00:29:42.776Z,84.07
2019-05-01T00:30:48.127Z,83.13
2019-05-01T00:31:53.500Z,81.33
2019-05-01T00:32:58.933Z,81.00
2019-05-01T00:34:04.209Z,80.13
2019-05-01T00:35:09.770Z,79.33
2019-05-01T00:36:15.343Z,83.27
2019-05-01T00:37:22.129Z,87.03
2019-05-01T00:38:27.584Z,81.07
2019-05-01T00:39:32.874Z,77.97
2019-05-01T00:40:38.117Z,86.80
2019-05-01T00:41:43.354Z,81.77
2019-05-01T00:42:48.697Z,85.80
2019-05-01T00:43:54.027Z,82.03
2019-05-01T00:44:59.284Z,85.60
2019-05-01T00:46:04.545Z,80.60
2019-05-01T00:47:09.754Z,86.93
2019-05-01T00:48:15.592Z,81.80
2019-05-01T00:49:20.787Z,92.90
2019-05-01T00:50:26.427Z,90.23
2019-05-01T00:51:31.572Z,85.07
2019-05-01T00:52:36.756Z,87.20
2019-05-01T00:53:41.945Z,85.43
2019-05-01T00:54:48.893Z,87.30
2019-05-01T00:56:20.113Z,88.97
2019-05-01T00:57:32.096Z,89.00
2019-05-01T00:58:56.348Z,93.50
2019-05-01T01:00:20.568Z,85.93
2019-05-01T01:01:56.857Z,86.63
2019-05-01T01:03:02.024Z,85.03
2019-05-01T01:04:07.744Z,90.27
2019-05-01T01:05:13.007Z,95.27
2019-05-01T01:06:18.436Z,91.30
2019-05-01T01:07:23.669Z,84.33
2019-05-01T01:08:30.014Z,80.90
2019-05-01T01:09:35.240Z,90.60
2019-05-01T01:10:40.462Z,87.30
2019-05-01T01:11:45.734Z,88.33
2019-05-01T01:12:50.986Z,84.03
2019-05-01T01:13:56.232Z,91.30
2019-05-01T01:15:01.306Z,85.70
2019-05-01T01:16:06.649Z,88.10
2019-05-01T01:17:11.738Z,82.83
2019-05-01T01:18:17.042Z,86.70
2019-05-01T01:19:22.278Z,88.30
2019-05-01T01:20:27.598Z,83.17
2019-05-01T01:21:32.836Z,90.27
2019-05-01T01:22:38.121Z,81.17
2019-05-01T01:23:43.627Z,81.30
2019-05-01T01:24:48.730Z,85.07
2019-05-01T01:25:54.238Z,79.90
2019-05-01T01:26:59.547Z,87.87
2019-05-01T01:28:04.837Z,83.63
2019-05-01T01:29:11.203Z,89.27
2019-05-01T01:30:16.446Z,83.07
2019-05-01T01:31:21.711Z,86.30
2019-05-01T01:32:26.876Z,95.20
2019-05-01T01:33:32.030Z,84.47
2019-05-01T01:34:37.190Z,83.90
2019-05-01T01:35:42.289Z,81.33
2019-05-01T01:36:47.590Z,85.70
2019-05-01T01:37:52.809Z,89.73
2019-05-01T01:38:57.915Z,84.27
2019-05-01T01:40:03.570Z,88.53
2019-05-01T01:41:09.110Z,88.10
2019-05-01T01:42:14.918Z,89.63
2019-05-01T01:43:37.854Z,87.67
2019-05-01T01:44:58.290Z,87.37
2019-05-01T01:46:04.353Z,86.53
2019-05-01T01:47:09.748Z,91.87
2019-05-01T01:48:16.511Z,85.00
2019-05-01T01:49:21.891Z,84.27
2019-05-01T01:50:27.046Z,85.17
2019-05-01T01:51:32.200Z,85.57
2019-05-01T01:52:37.534Z,83.57
2019-05-01T01:53:42.976Z,87.93
2019-05-01T01:54:48.272Z,85.83
2019-05-01T01:55:54.272Z,78.77
2019-05-01T01:56:59.531Z,85.53
2019-05-01T01:58:06.527Z,81.70
2019-05-01T01:59:11.882Z,81.20
2019-05-01T02:00:18.620Z,78.70
2019-05-01T02:01:43.182Z,80.43
2019-05-01T02:02:53.008Z,80.00
2019-05-01T02:04:02.819Z,82.33
2019-05-01T02:05:16.534Z,77.67
2019-05-01T02:06:22.095Z,79.73
2019-05-01T02:07:27.282Z,87.57
2019-05-01T02:08:32.503Z,86.70
2019-05-01T02:09:37.704Z,80.33
2019-05-01T02:10:43.479Z,85.20
2019-05-01T02:11:49.291Z,85.13
2019-05-01T02:12:54.610Z,83.33
2019-05-01T02:13:59.858Z,81.60
2019-05-01T02:15:05.655Z,85.87
2019-05-01T02:16:10.911Z,85.63
2019-05-01T02:17:16.160Z,84.00
2019-05-01T02:18:23.711Z,85.27
2019-05-01T02:19:28.175Z,80.87
2019-05-01T02:20:34.387Z,83.43
2019-05-01T02:21:39.748Z,85.07
2019-05-01T02:22:44.959Z,84.97
2019-05-01T02:23:50.223Z,83.07
2019-05-01T02:24:55.508Z,83.37
2019-05-01T02:26:01.621Z,89.40
2019-05-01T02:27:11.259Z,91.00
2019-05-01T02:28:24.726Z,97.00
2019-05-01T02:29:36.155Z,86.40
2019-05-01T02:30:45.423Z,86.17
2019-05-01T02:31:52.958Z,88.37
2019-05-01T02:32:59.054Z,91.77
2019-05-01T02:34:04.658Z,85.67
2019-05-01T02:35:10.146Z,90.07
2019-05-01T02:36:16.847Z,87.77
2019-05-01T02:37:23.936Z,79.47
2019-05-01T02:38:29.603Z,92.20
2019-05-01T02:39:36.875Z,87.50
2019-05-01T02:40:56.260Z,85.20
2019-05-01T02:42:02.702Z,83.33
2019-05-01T02:43:09.440Z,90.40
2019-05-01T02:44:22.193Z,89.30
2019-05-01T02:45:28.395Z,90.40
2019-05-01T02:46:36.320Z,92.90
2019-05-01T02:47:44.479Z,95.20
2019-05-01T02:48:55.971Z,98.90
2019-05-01T02:50:07.345Z,89.40
2019-05-01T02:51:13.991Z,89.43
2019-05-01T02:52:20.652Z,93.37
2019-05-01T02:53:27.338Z,91.27
2019-05-01T02:54:33.840Z,91.83
2019-05-01T02:55:44.734Z,94.03
2019-05-01T02:57:06.805Z,100.80
2019-05-01T02:58:13.677Z,92.37
2019-05-01T02:59:20.486Z,98.47
2019-05-01T03:00:28.672Z,99.23
2019-05-01T03:01:46.581Z,92.20
2019-05-01T03:02:43.334Z,96.70
2019-05-01T03:03:51.449Z,96.40
2019-05-01T03:04:57.851Z,98.57
2019-05-01T03:06:03.369Z,92.47
2019-05-01T03:07:10.072Z,99.23
2019-05-01T03:08:15.318Z,99.60
2019-05-01T03:09:21.266Z,99.27
2019-05-01T03:10:26.762Z,102.97
2019-05-01T03:11:32.062Z,105.97
2019-05-01T03:12:40.454Z,97.70
2019-05-01T03:13:47.602Z,109.30
2019-05-01T03:14:55.205Z,111.77
2019-05-01T03:16:00.664Z,106.43
2019-05-01T03:17:09.122Z,105.33
2019-05-01T03:18:25.150Z,102.83
2019-05-01T03:19:51.335Z,105.20
2019-05-01T03:21:09.630Z,116.40
2019-05-01T03:22:35.188Z,105.63
2019-05-01T03:23:47.939Z,105.73
2019-05-01T03:24:53.201Z,109.50
2019-05-01T03:25:58.470Z,111.23
2019-05-01T03:27:03.864Z,107.57
2019-05-01T03:28:09.085Z,112.30
2019-05-01T03:29:14.781Z,109.43
2019-05-01T03:30:20.048Z,105.20
2019-05-01T03:31:25.350Z,114.87
2019-05-01T03:32:30.594Z,104.17
2019-05-01T03:33:35.993Z,113.83
2019-05-01T03:34:41.520Z,107.83
2019-05-01T03:35:46.896Z,117.73
2019-05-01T03:36:53.279Z,104.50
2019-05-01T03:37:58.576Z,102.43
2019-05-01T03:39:05.774Z,103.13
2019-05-01T03:40:12.368Z,107.50
2019-05-01T03:41:18.142Z,102.43
2019-05-01T03:42:23.446Z,90.87
2019-05-01T03:43:29.275Z,92.23
2019-05-01T03:44:34.586Z,96.03
2019-05-01T03:45:39.969Z,91.87
2019-05-01T03:46:46.927Z,99.43
2019-05-01T03:47:52.187Z,93.37
2019-05-01T03:48:57.436Z,93.30
2019-05-01T03:50:02.772Z,91.57
2019-05-01T03:51:08.028Z,92.90
2019-05-01T03:52:13.381Z,93.53
2019-05-01T03:53:19.228Z,93.07
2019-05-01T03:54:24.507Z,89.70
2019-05-01T03:55:31.669Z,87.13
2019-05-01T03:56:37.971Z,89.47
2019-05-01T03:57:43.444Z,82.27
2019-05-01T03:58:48.803Z,82.57
2019-05-01T03:59:54.199Z,87.73
2019-05-01T04:01:17.711Z,83.67
2019-05-01T04:02:51.573Z,89.17
2019-05-01T04:04:00.686Z,82.83
2019-05-01T04:05:05.972Z,85.83
2019-05-01T04:06:11.514Z,78.60
2019-05-01T04:07:17.191Z,83.50
2019-05-01T04:08:22.760Z,80.07
2019-05-01T04:09:28.057Z,78.77
2019-05-01T04:10:33.858Z,78.30
2019-05-01T04:11:39.100Z,83.53
2019-05-01T04:12:44.450Z,83.43
2019-05-01T04:13:49.743Z,86.07
2019-05-01T04:14:55.558Z,82.70
2019-05-01T04:16:01.144Z,89.97
2019-05-01T04:17:12.884Z,87.83
2019-05-01T04:18:18.149Z,81.90
2019-05-01T04:19:24.070Z,81.00
2019-05-01T04:20:30.504Z,78.60
2019-05-01T04:21:43.823Z,80.87
2019-05-01T04:22:49.404Z,79.07
2019-05-01T04:23:54.588Z,79.60
2019-05-01T04:25:00.022Z,82.80
2019-05-01T04:26:05.166Z,80.80
2019-05-01T04:27:13.048Z,81.73
2019-05-01T04:28:46.850Z,86.93
2019-05-01T04:30:20.387Z,87.67
2019-05-01T04:31:39.323Z,86.73
2019-05-01T04:32:52.493Z,89.80
2019-05-01T04:33:53.421Z,86.40
2019-05-01T04:35:24.872Z,82.73
2019-05-01T04:36:35.103Z,76.97
2019-05-01T04:37:40.516Z,89.90
2019-05-01T04:38:45.658Z,89.83
2019-05-01T04:39:51.021Z,89.40
2019-05-01T04:40:56.242Z,96.20
2019-05-01T04:42:03.644Z,95.20
2019-05-01T04:43:08.918Z,95.13
2019-05-01T04:44:14.107Z,95.90
2019-05-01T04:45:21.131Z,86.03
2019-05-01T04:46:26.485Z,89.93
2019-05-01T04:47:31.872Z,83.53
2019-05-01T04:48:37.433Z,84.67
2019-05-01T04:49:43.026Z,89.03
2019-05-01T04:50:48.859Z,82.93
2019-05-01T04:51:54.450Z,94.13
2019-05-01T04:53:00.156Z,86.30
2019-05-01T04:54:05.427Z,85.43
2019-05-01T04:55:10.883Z,83.63
2019-05-01T04:56:16.161Z,86.57
2019-05-01T04:57:21.537Z,84.60
2019-05-01T04:58:26.939Z,87.33
2019-05-01T04:59:32.886Z,82.93
2019-05-01T05:00:39.018Z,82.07
2019-05-01T05:02:03.570Z,81.57
2019-05-01T05:03:13.506Z,83.40
2019-05-01T05:04:18.782Z,82.47
2019-05-01T05:05:24.440Z,77.97
2019-05-01T05:06:29.621Z,80.93
2019-05-01T05:07:36.006Z,83.07
2019-05-01T05:08:41.301Z,76.87
2019-05-01T05:09:47.491Z,78.53
2019-05-01T05:10:54.683Z,74.53
2019-05-01T05:12:01.556Z,79.30
2019-05-01T05:13:19.454Z,76.13
2019-05-01T05:14:29.257Z,73.53
2019-05-01T05:15:57.449Z,73.47
2019-05-01T05:17:06.411Z,72.60
2019-05-01T05:18:11.951Z,78.03
2019-05-01T05:19:17.180Z,76.37
2019-05-01T05:20:23.701Z,80.67
2019-05-01T05:21:28.936Z,76.43
2019-05-01T05:22:34.507Z,79.13
2019-05-01T05:23:40.123Z,80.37
2019-05-01T05:24:45.375Z,76.10
2019-05-01T05:25:50.757Z,74.30
2019-05-01T05:26:56.027Z,72.37
2019-05-01T05:28:01.479Z,76.97
2019-05-01T05:29:06.786Z,76.97
2019-05-01T05:30:11.918Z,74.27
2019-05-01T05:31:18.620Z,74.73
2019-05-01T05:32:25.095Z,77.33
2019-05-01T05:33:33.246Z,77.87
2019-05-01T05:34:41.227Z,78.40
2019-05-01T05:35:48.604Z,77.63
2019-05-01T05:36:57.672Z,81.20
2019-05-01T05:38:30.823Z,82.43
2019-05-01T05:39:41.736Z,81.33
2019-05-01T05:40:47.473Z,73.43
2019-05-01T05:41:54.638Z,74.33
2019-05-01T05:43:00.137Z,75.30
2019-05-01T05:44:05.840Z,75.87
2019-05-01T05:45:11.318Z,70.50
2019-05-01T05:46:16.818Z,71.73
2019-05-01T05:47:22.063Z,72.53
2019-05-01T05:48:27.428Z,72.43
2019-05-01T05:49:33.058Z,79.70
2019-05-01T05:50:50.825Z,74.97
2019-05-01T05:52:07.536Z,70.50
2019-05-01T05:53:16.339Z,69.63
2019-05-01T05:54:41.313Z,71.43
2019-05-01T05:55:52.341Z,66.87
2019-05-01T05:57:02.011Z,67.07
2019-05-01T05:58:20.572Z,63.27
2019-05-01T05:59:30.321Z,68.03
2019-05-01T06:00:50.320Z,69.17
2019-05-01T06:02:22.525Z,70.17
2019-05-01T06:03:46.648Z,65.30
2019-05-01T06:05:14.417Z,67.23
2019-05-01T06:06:43.019Z,68.43
2019-05-01T06:08:07.704Z,66.03
2019-05-01T06:09:15.836Z,65.47
2019-05-01T06:10:36.689Z,68.20
2019-05-01T06:11:55.999Z,67.80
2019-05-01T06:13:17.862Z,74.17
2019-05-01T06:14:43.951Z,70.40
2019-05-01T06:16:12.275Z,67.47
2019-05-01T06:17:38.377Z,67.67
2019-05-01T06:19:14.553Z,73.27
2019-05-01T06:20:39.264Z,70.10
2019-05-01T06:22:10.314Z,71.20
2019-05-01T06:23:27.701Z,73.33
2019-05-01T06:24:40.696Z,72.10
2019-05-01T06:25:54.109Z,71.43
2019-05-01T06:26:57.794Z,73.40
2019-05-01T06:28:03.101Z,74.93
2019-05-01T06:29:08.365Z,73.13
2019-05-01T06:30:13.816Z,73.20
2019-05-01T06:31:22.894Z,72.20
2019-05-01T06:32:28.788Z,71.03
2019-05-01T06:33:43.861Z,72.27
2019-05-01T06:34:40.876Z,71.07
2019-05-01T06:35:48.823Z,70.23
2019-05-01T06:36:54.003Z,69.60
2019-05-01T06:38:03.574Z,70.43
2019-05-01T06:39:11.837Z,68.67
2019-05-01T06:40:18.758Z,68.40
2019-05-01T06:41:28.767Z,71.60
2019-05-01T06:42:33.263Z,71.60
2019-05-01T06:44:02.251Z,65.53
2019-05-01T06:45:13.132Z,62.10
2019-05-01T06:46:29.084Z,65.17
2019-05-01T06:47:53.348Z,62.20
2019-05-01T06:49:07.011Z,61.33
2019-05-01T06:50:37.094Z,61.40
2019-05-01T06:51:55.182Z,65.17
2019-05-01T06:53:04.528Z,58.37
2019-05-01T06:54:11.328Z,62.77
2019-05-01T06:55:17.132Z,60.43
2019-05-01T06:56:22.348Z,61.57
2019-05-01T06:57:28.522Z,58.73
2019-05-01T06:58:33.902Z,57.73
2019-05-01T06:59:39.768Z,63.23
2019-05-01T07:00:48.135Z,62.13
2019-05-01T07:01:58.318Z,65.83
2019-05-01T07:03:01.693Z,66.73
2019-05-01T07:04:07.758Z,60.33
2019-05-01T07:05:14.592Z,58.20
2019-05-01T07:06:20.097Z,63.13
2019-05-01T07:07:25.869Z,59.60
2019-05-01T07:08:34.171Z,55.87
2019-05-01T07:09:38.920Z,61.23
2019-05-01T07:10:45.919Z,56.37
2019-05-01T07:11:52.785Z,59.07
2019-05-01T07:13:05.100Z,55.70
2019-05-01T07:14:11.108Z,57.13
2019-05-01T07:15:15.679Z,61.40
2019-05-01T07:16:21.742Z,57.97
2019-05-01T07:17:26.921Z,60.93
2019-05-01T07:18:32.047Z,57.40
2019-05-01T07:20:02.124Z,61.03
2019-05-01T07:21:07.386Z,55.33
2019-05-01T07:22:12.679Z,57.50
2019-05-01T07:23:18.698Z,59.70
2019-05-01T07:24:27.899Z,64.37
2019-05-01T07:25:34.955Z,58.23
2019-05-01T07:26:39.125Z,57.77
2019-05-01T07:27:44.313Z,61.30
2019-05-01T07:28:51.870Z,59.57
2019-05-01T07:30:00.538Z,59.07
2019-05-01T07:31:10.005Z,60.63
2019-05-01T07:32:18.186Z,58.47
2019-05-01T07:33:23.943Z,57.43
2019-05-01T07:34:29.186Z,59.33
2019-05-01T07:35:36.780Z,61.80
2019-05-01T07:36:41.786Z,56.67
2019-05-01T07:37:50.309Z,58.70
2019-05-01T07:38:55.997Z,59.77
2019-05-01T07:40:01.399Z,55.90
2019-05-01T07:41:06.768Z,58.97
2019-05-01T07:42:29.220Z,57.80
2019-05-01T07:43:59.588Z,57.33
2019-05-01T07:45:30.651Z,58.57
2019-05-01T07:46:48.836Z,58.83
2019-05-01T07:47:54.576Z,57.07
2019-05-01T07:49:00.101Z,54.67
2019-05-01T07:50:11.425Z,57.87
2019-05-01T07:51:18.445Z,56.93
2019-05-01T07:52:24.834Z,57.33
2019-05-01T07:53:30.162Z,51.33
2019-05-01T07:54:37.859Z,54.73
2019-05-01T07:55:43.229Z,60.07
2019-05-01T07:56:48.525Z,58.20
2019-05-01T07:57:55.444Z,54.37
2019-05-01T07:59:01.196Z,54.60
2019-05-01T08:00:10.316Z,55.17
2019-05-01T08:01:23.276Z,55.23
2019-05-01T08:02:30.866Z,57.70
2019-05-01T08:03:38.142Z,54.07
2019-05-01T08:04:45.559Z,54.67
2019-05-01T08:05:50.883Z,56.53
2019-05-01T08:06:57.006Z,56.13
2019-05-01T08:08:07.758Z,57.33
2019-05-01T08:09:11.200Z,57.13
2019-05-01T08:10:20.979Z,56.67
2019-05-01T08:11:24.653Z,58.67
2019-05-01T08:12:31.997Z,56.77
2019-05-01T08:13:37.378Z,60.23
2019-05-01T08:14:42.758Z,54.70
2019-05-01T08:16:07.111Z,56.13
2019-05-01T08:17:17.957Z,53.57
2019-05-01T08:18:28.040Z,56.07
2019-05-01T08:19:53.382Z,56.87
2019-05-01T08:21:10.359Z,55.63
2019-05-01T08:22:22.638Z,52.60
2019-05-01T08:23:27.989Z,52.70
2019-05-01T08:24:33.265Z,57.97
2019-05-01T08:25:38.915Z,53.90
2019-05-01T08:26:45.865Z,55.23
2019-05-01T08:28:00.242Z,54.50
2019-05-01T08:29:30.600Z,51.73
2019-05-01T08:30:55.223Z,52.43
2019-05-01T08:32:22.713Z,54.77
2019-05-01T08:33:49.872Z,57.17
2019-05-01T08:35:00.389Z,49.67
2019-05-01T08:36:06.705Z,54.10
2019-05-01T08:37:13.247Z,58.17
2019-05-01T08:38:18.577Z,53.50
2019-05-01T08:39:23.727Z,55.90
2019-05-01T08:40:28.985Z,55.37
2019-05-01T08:41:34.176Z,57.07
2019-05-01T08:42:42.503Z,54.83
2019-05-01T08:43:48.897Z,52.80
2019-05-01T08:45:12.349Z,55.97
2019-05-01T08:46:35.090Z,52.43
2019-05-01T08:47:42.185Z,53.87
2019-05-01T08:48:54.976Z,58.97
2019-05-01T08:50:24.601Z,53.07
2019-05-01T08:51:30.113Z,54.60
2019-05-01T08:52:33.725Z,51.73
2019-05-01T08:53:39.188Z,53.67
2019-05-01T08:54:44.473Z,58.13
2019-05-01T08:55:49.643Z,56.40
2019-05-01T08:56:58.521Z,53.93
2019-05-01T08:58:08.796Z,55.70
2019-05-01T08:59:11.536Z,56.83
2019-05-01T09:00:16.897Z,57.83
2019-05-01T09:01:22.308Z,59.13
2019-05-01T09:02:27.718Z,55.23
2019-05-01T09:03:32.975Z,55.60
2019-05-01T09:04:39.432Z,53.77
2019-05-01T09:05:46.391Z,54.87
2019-05-01T09:06:51.646Z,56.80
2019-05-01T09:07:57.759Z,58.43
2019-05-01T09:09:08.218Z,59.63
2019-05-01T09:10:12.771Z,59.83
2019-05-01T09:11:18.069Z,57.17
2019-05-01T09:12:23.440Z,55.07
2019-05-01T09:13:28.809Z,55.90
2019-05-01T09:14:36.808Z,57.83
2019-05-01T09:15:43.776Z,55.33
2019-05-01T09:16:52.184Z,59.63
2019-05-01T09:17:56.243Z,58.07
2019-05-01T09:19:01.566Z,62.10
2019-05-01T09:20:07.421Z,59.40
2019-05-01T09:21:12.789Z,59.73
2019-05-01T09:22:18.107Z,58.73
2019-05-01T09:23:23.506Z,56.23
2019-05-01T09:24:29.458Z,58.50
2019-05-01T09:25:41.144Z,59.40
2019-05-01T09:26:53.049Z,54.83
2019-05-01T09:28:05.953Z,58.83
2019-05-01T09:29:16.118Z,57.33
2019-05-01T09:30:32.126Z,55.43
2019-05-01T09:31:37.356Z,62.00
2019-05-01T09:32:45.950Z,56.33
2019-05-01T09:33:49.898Z,61.00
2019-05-01T09:34:58.073Z,55.60
2019-05-01T09:36:02.069Z,58.90
2019-05-01T09:37:07.554Z,57.33
2019-05-01T09:38:12.789Z,60.53
2019-05-01T09:39:19.561Z,61.00
2019-05-01T09:40:24.997Z,59.10
2019-05-01T09:41:38.007Z,56.67
2019-05-01T09:42:37.394Z,57.03
2019-05-01T09:43:42.516Z,53.83
2019-05-01T09:44:47.849Z,55.10
2019-05-01T09:45:53.146Z,59.37
2019-05-01T09:46:58.518Z,59.90
2019-05-01T09:48:03.852Z,54.43
2019-05-01T09:49:09.264Z,57.67
2019-05-01T09:50:15.716Z,54.60
2019-05-01T09:51:42.608Z,54.77
2019-05-01T09:53:11.733Z,54.27
2019-05-01T09:54:22.356Z,52.93
2019-05-01T09:55:50.076Z,59.33
2019-05-01T09:56:55.527Z,48.70
2019-05-01T09:58:02.761Z,52.60
2019-05-01T09:59:12.539Z,53.60
2019-05-01T10:00:25.767Z,55.63
2019-05-01T10:01:32.905Z,53.50
2019-05-01T10:02:42.271Z,53.80
2019-05-01T10:03:45.028Z,52.47
2019-05-01T10:04:50.516Z,50.20
2019-05-01T10:05:55.765Z,49.80
2019-05-01T10:07:02.257Z,52.23
2019-05-01T10:08:08.905Z,48.30
2019-05-01T10:09:16.763Z,51.13
2019-05-01T10:10:24.880Z,47.40
2019-05-01T10:11:27.891Z,49.77
2019-05-01T10:12:33.929Z,49.70
2019-05-01T10:13:39.237Z,48.87
2019-05-01T10:14:44.472Z,48.77
2019-05-01T10:15:50.824Z,53.93
2019-05-01T10:16:56.153Z,48.93
2019-05-01T10:18:06.396Z,49.03
2019-05-01T10:19:13.775Z,49.37
2019-05-01T10:20:22.292Z,48.93
2019-05-01T10:21:28.933Z,47.73
2019-05-01T10:22:38.686Z,46.93
2019-05-01T10:24:00.704Z,45.00
2019-05-01T10:25:08.543Z,49.53
2019-05-01T10:26:18.993Z,51.77
2019-05-01T10:27:25.472Z,47.90
2019-05-01T10:28:39.497Z,46.97
2019-05-01T10:30:18.649Z,46.73
2019-05-01T10:31:46.566Z,46.20
2019-05-01T10:32:57.910Z,50.00
2019-05-01T10:34:12.413Z,47.33
2019-05-01T10:35:42.923Z,47.73
2019-05-01T10:36:49.933Z,46.90
2019-05-01T10:37:54.115Z,48.63
2019-05-01T10:38:59.380Z,51.03
2019-05-01T10:40:05.239Z,47.67
2019-05-01T10:41:10.733Z,46.90
2019-05-01T10:42:16.325Z,44.33
2019-05-01T10:43:21.747Z,44.80
2019-05-01T10:44:27.028Z,43.63
2019-05-01T10:45:32.351Z,46.90
2019-05-01T10:46:37.827Z,46.57
2019-05-01T10:47:43.145Z,46.47
2019-05-01T10:48:48.470Z,47.43
2019-05-01T10:49:53.701Z,46.27
2019-05-01T10:50:58.927Z,48.37
2019-05-01T10:52:13.875Z,43.87
2019-05-01T10:53:11.172Z,47.97
2019-05-01T10:54:16.579Z,48.30
2019-05-01T10:55:21.921Z,48.63
2019-05-01T10:56:27.394Z,46.30
2019-05-01T10:57:35.092Z,48.67
2019-05-01T10:58:39.600Z,51.37
2019-05-01T10:59:44.917Z,46.10
2019-05-01T11:00:52.831Z,53.67
2019-05-01T11:01:59.294Z,46.67
2019-05-01T11:03:04.564Z,48.53
2019-05-01T11:04:09.927Z,50.30
2019-05-01T11:05:18.049Z,44.57
2019-05-01T11:06:23.254Z,50.33
2019-05-01T11:07:28.591Z,49.23
2019-05-01T11:08:34.247Z,45.53
2019-05-01T11:09:39.525Z,48.63
2019-05-01T11:10:44.651Z,48.20
2019-05-01T11:11:50.014Z,47.90
2019-05-01T11:12:55.264Z,50.77
2019-05-01T11:14:00.624Z,73.57
2019-05-01T11:15:07.693Z,73.50
2019-05-01T11:16:12.961Z,84.83
2019-05-01T11:17:18.156Z,187.73
2019-05-01T11:18:23.490Z,54.57
2019-05-01T11:19:29.757Z,55.60
2019-05-01T11:20:35.105Z,47.00
2019-05-01T11:21:40.413Z,46.90
2019-05-01T11:22:45.602Z,49.27
2019-05-01T11:23:50.830Z,51.33
2019-05-01T11:24:56.606Z,48.20
2019-05-01T11:26:01.955Z,49.17
2019-05-01T11:27:08.288Z,46.87
2019-05-01T11:28:13.506Z,47.10
2019-05-01T11:29:18.759Z,47.77
2019-05-01T11:30:24.194Z,54.27
2019-05-01T11:31:37.199Z,47.87
2019-05-01T11:33:02.633Z,49.00
2019-05-01T11:34:25.445Z,52.23
2019-05-01T11:35:49.702Z,48.97
2019-05-01T11:37:19.985Z,48.83
2019-05-01T11:38:43.110Z,53.57
2019-05-01T11:40:01.862Z,49.63
2019-05-01T11:41:36.025Z,47.20
2019-05-01T11:42:42.483Z,49.73
2019-05-01T11:43:48.562Z,46.90
2019-05-01T11:44:53.987Z,49.40
2019-05-01T11:45:59.278Z,50.50
2019-05-01T11:47:04.913Z,51.57
2019-05-01T11:48:10.185Z,48.67
2019-05-01T11:49:15.570Z,53.23
2019-05-01T11:50:24.391Z,56.67
2019-05-01T11:51:29.672Z,51.67
2019-05-01T11:52:34.942Z,51.10
2019-05-01T11:53:40.081Z,50.93
2019-05-01T11:54:51.928Z,51.17
2019-05-01T11:55:57.125Z,50.20
2019-05-01T11:57:02.340Z,46.70
2019-05-01T11:58:07.621Z,52.77
2019-05-01T11:59:12.902Z,51.43
2019-05-01T12:00:19.187Z,52.30
2019-05-01T12:01:25.543Z,49.03
2019-05-01T12:02:30.725Z,49.67
2019-05-01T12:03:36.097Z,49.30
2019-05-01T12:04:42.344Z,50.00
2019-05-01T12:05:47.730Z,48.30
2019-05-01T12:06:53.013Z,49.57
2019-05-01T12:07:58.323Z,49.43
2019-05-01T12:09:05.486Z,50.03
2019-05-01T12:10:14.299Z,48.67
2019-05-01T12:11:20.396Z,50.73
2019-05-01T12:12:27.246Z,50.67
2019-05-01T12:13:43.272Z,48.83
2019-05-01T12:14:39.367Z,52.23
2019-05-01T12:15:46.122Z,48.70
2019-05-01T12:17:13.136Z,50.13
2019-05-01T12:18:18.375Z,51.00
2019-05-01T12:19:23.952Z,48.93
2019-05-01T12:20:29.169Z,50.00
2019-05-01T12:21:34.346Z,47.37
2019-05-01T12:22:39.515Z,49.00
2019-05-01T12:23:44.775Z,48.87
2019-05-01T12:24:49.975Z,48.00
2019-05-01T12:25:55.262Z,50.33
2019-05-01T12:27:00.445Z,51.37
2019-05-01T12:28:05.819Z,50.83
2019-05-01T12:29:11.172Z,52.00
2019-05-01T12:30:17.304Z,47.30
2019-05-01T12:31:22.616Z,45.80
2019-05-01T12:32:27.880Z,50.30
2019-05-01T12:33:33.181Z,51.00
2019-05-01T12:34:38.424Z,49.47
2019-05-01T12:35:46.189Z,54.40
2019-05-01T12:36:53.057Z,49.23
2019-05-01T12:38:01.087Z,48.63
2019-05-01T12:39:08.798Z,50.27
2019-05-01T12:40:20.350Z,50.37
2019-05-01T12:41:37.237Z,54.97
2019-05-01T12:42:42.517Z,46.90
2019-05-01T12:43:47.704Z,52.77
2019-05-01T12:44:52.880Z,46.93
2019-05-01T12:45:58.157Z,51.97
2019-05-01T12:47:31.377Z,49.57
2019-05-01T12:48:36.550Z,51.07
2019-05-01T12:49:42.174Z,49.07
2019-05-01T12:50:49.382Z,47.47
2019-05-01T12:52:09.892Z,49.00
2019-05-01T12:53:21.650Z,48.63
2019-05-01T12:54:40.930Z,49.30
2019-05-01T12:55:53.629Z,48.67
2019-05-01T12:56:58.877Z,48.90
2019-05-01T12:58:04.098Z,51.10
2019-05-01T12:59:09.399Z,51.97
2019-05-01T13:00:17.401Z,55.17
2019-05-01T13:01:22.753Z,48.40
2019-05-01T13:02:28.003Z,48.10
2019-05-01T13:03:33.248Z,48.07
2019-05-01T13:04:38.522Z,51.33
2019-05-01T13:05:43.766Z,49.37
2019-05-01T13:06:52.548Z,48.23
2019-05-01T13:07:57.816Z,51.37
2019-05-01T13:09:03.145Z,47.73
2019-05-01T13:10:09.363Z,48.40
2019-05-01T13:11:14.720Z,48.23
2019-05-01T13:12:19.967Z,49.07
2019-05-01T13:13:25.239Z,51.87
2019-05-01T13:14:30.372Z,51.30
2019-05-01T13:15:35.642Z,50.03
2019-05-01T13:16:41.048Z,49.83
2019-05-01T13:17:46.239Z,49.53
2019-05-01T13:18:51.534Z,52.53
2019-05-01T13:19:56.880Z,57.83
2019-05-01T13:21:02.057Z,55.73
2019-05-01T13:22:07.383Z,54.73
2019-05-01T13:23:12.587Z,52.97
2019-05-01T13:24:17.893Z,51.17
2019-05-01T13:25:23.231Z,51.53
2019-05-01T13:26:39.762Z,51.70
2019-05-01T13:27:54.258Z,53.00
2019-05-01T13:29:18.508Z,52.27
2019-05-01T13:30:35.687Z,52.23
2019-05-01T13:32:02.953Z,51.87
2019-05-01T13:33:08.410Z,51.60
2019-05-01T13:34:13.768Z,50.03
2019-05-01T13:35:19.169Z,52.60
2019-05-01T13:36:24.404Z,50.80
2019-05-01T13:37:29.693Z,48.93
2019-05-01T13:38:35.840Z,52.03
2019-05-01T13:39:41.022Z,49.43
2019-05-01T13:40:46.271Z,51.07
2019-05-01T13:41:51.602Z,48.60
2019-05-01T13:42:56.876Z,49.20
2019-05-01T13:44:02.265Z,50.33
2019-05-01T13:45:08.879Z,53.23
2019-05-01T13:46:14.206Z,60.17
2019-05-01T13:47:19.618Z,55.37
2019-05-01T13:48:24.980Z,47.67
2019-05-01T13:49:30.408Z,48.17
2019-05-01T13:50:37.777Z,53.23
2019-05-01T13:51:43.061Z,49.13
2019-05-01T13:52:48.173Z,50.37
2019-05-01T13:53:53.438Z,50.63
2019-05-01T13:54:59.504Z,49.60
2019-05-01T13:56:04.813Z,48.90
2019-05-01T13:57:10.227Z,49.57
2019-05-01T13:58:15.671Z,49.10
2019-05-01T13:59:20.950Z,47.37
2019-05-01T14:00:27.154Z,47.87
2019-05-01T14:01:32.498Z,47.47
2019-05-01T14:02:37.938Z,49.60
2019-05-01T14:03:43.201Z,49.00
2019-05-01T14:04:48.380Z,51.90
2019-05-01T14:05:53.677Z,51.17
2019-05-01T14:06:58.959Z,55.10
2019-05-01T14:08:04.293Z,50.87
2019-05-01T14:09:11.879Z,48.93
2019-05-01T14:10:19.199Z,48.63
2019-05-01T14:11:24.529Z,48.50
2019-05-01T14:12:29.889Z,50.23
2019-05-01T14:13:35.275Z,47.77
2019-05-01T14:14:40.570Z,50.20
2019-05-01T14:15:45.879Z,44.67
2019-05-01T14:16:51.161Z,48.83
2019-05-01T14:17:56.418Z,52.00
2019-05-01T14:19:01.786Z,49.57
2019-05-01T14:20:19.454Z,54.10
2019-05-01T14:21:48.687Z,48.33
2019-05-01T14:23:01.042Z,50.10
2019-05-01T14:24:25.465Z,50.73
2019-05-01T14:25:49.681Z,50.57
2019-05-01T14:26:54.976Z,49.40
2019-05-01T14:28:00.186Z,50.70
2019-05-01T14:29:05.863Z,54.23
2019-05-01T14:30:12.395Z,51.50
2019-05-01T14:31:17.823Z,52.57
2019-05-01T14:32:23.053Z,49.13
2019-05-01T14:33:28.187Z,53.53
2019-05-01T14:34:33.787Z,51.70
2019-05-01T14:35:39.089Z,50.27
2019-05-01T14:36:44.506Z,48.37
2019-05-01T14:37:49.717Z,49.10
2019-05-01T14:38:54.878Z,52.03
2019-05-01T14:40:00.048Z,47.93
2019-05-01T14:41:05.273Z,51.27
2019-05-01T14:42:11.544Z,48.10